sensor_id;sensor_type;location;lat;lon;timestamp;pressure;altitude;pressure_sealevel;temperature;humidity
44027;BME280;29696;55.698;37.460;2022-11-18T00:02:18;98788.88;;;-6.46;75.63
44027;BME280;29696;55.698;37.460;2022-11-18T00:04:45;98801.72;;;-6.46;75.54
44027;BME280;29696;55.698;37.460;2022-11-18T00:07:11;98798.28;;;-6.46;75.74
44027;BME280;29696;55.698;37.460;2022-11-18T00:09:37;98794.00;;;-6.46;75.71
44027;BME280;29696;55.698;37.460;2022-11-18T00:12:03;98802.69;;;-6.50;75.95
44027;BME280;29696;55.698;37.460;2022-11-18T00:14:48;98783.66;;;-6.44;75.76
44027;BME280;29696;55.698;37.460;2022-11-18T00:17:15;98790.44;;;-6.41;75.94
44027;BME280;29696;55.698;37.460;2022-11-18T00:19:41;98789.53;;;-6.40;75.81
44027;BME280;29696;55.698;37.460;2022-11-18T00:22:11;98782.63;;;-6.38;75.56
44027;BME280;29696;55.698;37.460;2022-11-18T00:24:38;98782.84;;;-6.45;75.36
44027;BME280;29696;55.698;37.460;2022-11-18T00:27:04;98777.81;;;-6.49;75.18
44027;BME280;29696;55.698;37.460;2022-11-18T00:29:30;98763.38;;;-6.52;74.76
44027;BME280;29696;55.698;37.460;2022-11-18T00:31:57;98765.94;;;-6.52;74.73
44027;BME280;29696;55.698;37.460;2022-11-18T00:34:23;98762.41;;;-6.49;75.50
44027;BME280;29696;55.698;37.460;2022-11-18T00:36:50;98763.09;;;-6.44;75.44
44027;BME280;29696;55.698;37.460;2022-11-18T00:39:18;98787.28;;;-6.50;75.36
44027;BME280;29696;55.698;37.460;2022-11-18T00:41:45;98776.22;;;-6.52;75.00
44027;BME280;29696;55.698;37.460;2022-11-18T00:44:30;98762.66;;;-6.57;75.00
44027;BME280;29696;55.698;37.460;2022-11-18T00:46:57;98760.00;;;-6.54;75.36
44027;BME280;29696;55.698;37.460;2022-11-18T00:49:23;98781.38;;;-6.52;75.72
44027;BME280;29696;55.698;37.460;2022-11-18T00:51:49;98747.19;;;-6.55;74.84
44027;BME280;29696;55.698;37.460;2022-11-18T00:54:16;98760.81;;;-6.52;74.85
44027;BME280;29696;55.698;37.460;2022-11-18T00:56:42;98753.94;;;-6.51;74.63
44027;BME280;29696;55.698;37.460;2022-11-18T00:59:09;98760.81;;;-6.52;74.41
44027;BME280;29696;55.698;37.460;2022-11-18T01:01:35;98752.22;;;-6.52;74.39
44027;BME280;29696;55.698;37.460;2022-11-18T01:04:02;98748.09;;;-6.56;74.17
44027;BME280;29696;55.698;37.460;2022-11-18T01:06:28;98743.88;;;-6.59;74.25
44027;BME280;29696;55.698;37.460;2022-11-18T01:08:55;98754.78;;;-6.52;74.45
44027;BME280;29696;55.698;37.460;2022-11-18T01:11:21;98742.75;;;-6.50;74.55
44027;BME280;29696;55.698;37.460;2022-11-18T01:14:06;98758.13;;;-6.49;74.36
44027;BME280;29696;55.698;37.460;2022-11-18T01:16:33;98759.84;;;-6.49;73.98
44027;BME280;29696;55.698;37.460;2022-11-18T01:18:59;98744.50;;;-6.52;73.97
44027;BME280;29696;55.698;37.460;2022-11-18T01:21:27;98756.44;;;-6.50;74.41
44027;BME280;29696;55.698;37.460;2022-11-18T01:23:54;98733.59;;;-6.59;74.16
44027;BME280;29696;55.698;37.460;2022-11-18T01:26:20;98734.22;;;-6.52;74.64
44027;BME280;29696;55.698;37.460;2022-11-18T01:28:47;98737.50;;;-6.47;75.04
44027;BME280;29696;55.698;37.460;2022-11-18T01:31:15;98733.19;;;-6.47;74.91
44027;BME280;29696;55.698;37.460;2022-11-18T01:33:43;98722.09;;;-6.47;75.00
44027;BME280;29696;55.698;37.460;2022-11-18T01:36:39;98737.81;;;-6.31;74.57
44027;BME280;29696;55.698;37.460;2022-11-18T01:39:05;98743.34;;;-6.42;74.00
44027;BME280;29696;55.698;37.460;2022-11-18T01:41:31;98728.97;;;-6.48;73.85
44027;BME280;29696;55.698;37.460;2022-11-18T01:44:04;98736.88;;;-6.54;74.50
44027;BME280;29696;55.698;37.460;2022-11-18T01:46:32;98739.34;;;-6.51;74.42
44027;BME280;29696;55.698;37.460;2022-11-18T01:49:03;98732.72;;;-6.58;74.38
44027;BME280;29696;55.698;37.460;2022-11-18T01:51:34;98730.16;;;-6.58;74.52
44027;BME280;29696;55.698;37.460;2022-11-18T01:54:06;98725.66;;;-6.51;74.96
44027;BME280;29696;55.698;37.460;2022-11-18T01:56:44;98740.88;;;-6.45;75.02
44027;BME280;29696;55.698;37.460;2022-11-18T01:59:25;98727.94;;;-6.44;74.56
44027;BME280;29696;55.698;37.460;2022-11-18T02:01:55;98713.56;;;-6.49;74.35
44027;BME280;29696;55.698;37.460;2022-11-18T02:04:22;98734.03;;;-6.46;74.39
44027;BME280;29696;55.698;37.460;2022-11-18T02:06:50;98721.19;;;-6.46;74.82
44027;BME280;29696;55.698;37.460;2022-11-18T02:09:17;98730.50;;;-6.42;74.68
44027;BME280;29696;55.698;37.460;2022-11-18T02:11:43;98733.97;;;-6.43;74.65
44027;BME280;29696;55.698;37.460;2022-11-18T02:14:37;98733.69;;;-6.35;74.41
44027;BME280;29696;55.698;37.460;2022-11-18T02:20:52;98725.34;;;-6.42;74.11
44027;BME280;29696;55.698;37.460;2022-11-18T02:30:01;98713.28;;;-6.40;74.18
44027;BME280;29696;55.698;37.460;2022-11-18T02:32:40;98734.03;;;-6.46;74.25
44027;BME280;29696;55.698;37.460;2022-11-18T02:35:53;98709.13;;;-6.44;74.48
44027;BME280;29696;55.698;37.460;2022-11-18T02:38:27;98709.13;;;-6.44;74.94
44027;BME280;29696;55.698;37.460;2022-11-18T02:40:58;98704.81;;;-6.44;75.17
44027;BME280;29696;55.698;37.460;2022-11-18T02:43:33;98710.66;;;-6.38;75.02
44027;BME280;29696;55.698;37.460;2022-11-18T02:46:05;98707.28;;;-6.40;74.92
44027;BME280;29696;55.698;37.460;2022-11-18T02:48:38;98705.59;;;-6.40;74.52
44027;BME280;29696;55.698;37.460;2022-11-18T02:51:06;98712.50;;;-6.42;74.33
44027;BME280;29696;55.698;37.460;2022-11-18T02:53:36;98707.25;;;-6.39;74.45
44027;BME280;29696;55.698;37.460;2022-11-18T02:56:03;98708.19;;;-6.41;74.58
44027;BME280;29696;55.698;37.460;2022-11-18T02:58:31;98701.41;;;-6.44;74.54
44027;BME280;29696;55.698;37.460;2022-11-18T03:00:59;98728.72;;;-6.40;74.51
44027;BME280;29696;55.698;37.460;2022-11-18T03:03:46;98705.63;;;-6.41;74.47
44027;BME280;29696;55.698;37.460;2022-11-18T03:06:37;98703.16;;;-6.45;74.68
44027;BME280;29696;55.698;37.460;2022-11-18T03:09:35;98702.09;;;-6.39;74.90
44027;BME280;29696;55.698;37.460;2022-11-18T03:12:31;98701.22;;;-6.38;75.18
44027;BME280;29696;55.698;37.460;2022-11-18T03:15:31;98699.47;;;-6.37;74.98
44027;BME280;29696;55.698;37.460;2022-11-18T03:21:11;98690.19;;;-6.41;75.29
44027;BME280;29696;55.698;37.460;2022-11-18T03:26:35;98698.03;;;-6.46;74.91
44027;BME280;29696;55.698;37.460;2022-11-18T03:29:11;98692.03;;;-6.45;74.79
44027;BME280;29696;55.698;37.460;2022-11-18T03:32:02;98686.78;;;-6.42;74.85
44027;BME280;29696;55.698;37.460;2022-11-18T03:34:36;98686.78;;;-6.42;75.15
44027;BME280;29696;55.698;37.460;2022-11-18T03:37:07;98684.16;;;-6.40;75.20
44027;BME280;29696;55.698;37.460;2022-11-18T03:39:40;98686.63;;;-6.37;75.40
44027;BME280;29696;55.698;37.460;2022-11-18T03:42:14;98682.34;;;-6.37;75.37
44027;BME280;29696;55.698;37.460;2022-11-18T03:44:46;98685.75;;;-6.36;75.35
44027;BME280;29696;55.698;37.460;2022-11-18T03:47:58;98685.47;;;-6.29;75.08
44027;BME280;29696;55.698;37.460;2022-11-18T03:50:27;98676.22;;;-6.34;75.13
44027;BME280;29696;55.698;37.460;2022-11-18T03:52:55;98673.66;;;-6.34;75.27
44027;BME280;29696;55.698;37.460;2022-11-18T03:55:26;98683.84;;;-6.31;75.37
44027;BME280;29696;55.698;37.460;2022-11-18T03:58:15;98673.25;;;-6.22;74.99
44027;BME280;29696;55.698;37.460;2022-11-18T04:00:47;98676.03;;;-6.28;74.81
44027;BME280;29696;55.698;37.460;2022-11-18T04:03:16;98676.13;;;-6.31;75.09
44027;BME280;29696;55.698;37.460;2022-11-18T04:05:42;98679.59;;;-6.32;74.58
44027;BME280;29696;55.698;37.460;2022-11-18T04:08:13;98670.97;;;-6.31;74.80
44027;BME280;29696;55.698;37.460;2022-11-18T04:11:32;98669.28;;;-6.31;75.16
44027;BME280;29696;55.698;37.460;2022-11-18T04:13:36;98672.56;;;-6.27;75.33
44027;BME280;29696;55.698;37.460;2022-11-18T04:16:03;98683.06;;;-6.33;75.06
44027;BME280;29696;55.698;37.460;2022-11-18T04:18:32;98679.81;;;-6.38;74.88
44027;BME280;29696;55.698;37.460;2022-11-18T04:20:58;98675.56;;;-6.39;75.00
44027;BME280;29696;55.698;37.460;2022-11-18T04:23:24;98666.97;;;-6.38;75.19
44027;BME280;29696;55.698;37.460;2022-11-18T04:25:50;98676.34;;;-6.37;75.04
44027;BME280;29696;55.698;37.460;2022-11-18T04:28:17;98670.31;;;-6.36;74.68
44027;BME280;29696;55.698;37.460;2022-11-18T04:30:43;98673.75;;;-6.37;74.52
44027;BME280;29696;55.698;37.460;2022-11-18T04:33:09;98661.81;;;-6.38;74.67
44027;BME280;29696;55.698;37.460;2022-11-18T04:35:36;98669.50;;;-6.37;74.73
44027;BME280;29696;55.698;37.460;2022-11-18T04:38:02;98669.38;;;-6.34;75.10
44027;BME280;29696;55.698;37.460;2022-11-18T04:40:28;98670.97;;;-6.31;74.60
44027;BME280;29696;55.698;37.460;2022-11-18T04:42:54;98671.38;;;-6.42;74.25
44027;BME280;29696;55.698;37.460;2022-11-18T04:45:21;98664.50;;;-6.41;74.36
44027;BME280;29696;55.698;37.460;2022-11-18T04:47:47;98663.38;;;-6.34;74.52
44027;BME280;29696;55.698;37.460;2022-11-18T04:50:13;98677.94;;;-6.33;74.63
44027;BME280;29696;55.698;37.460;2022-11-18T04:52:40;98676.13;;;-6.31;74.82
44027;BME280;29696;55.698;37.460;2022-11-18T04:55:06;98661.88;;;-6.40;74.15
44027;BME280;29696;55.698;37.460;2022-11-18T04:57:33;98659.94;;;-6.33;74.08
44027;BME280;29696;55.698;37.460;2022-11-18T04:59:59;98663.34;;;-6.33;74.42
44027;BME280;29696;55.698;37.460;2022-11-18T05:02:25;98667.56;;;-6.32;74.38
44027;BME280;29696;55.698;37.460;2022-11-18T05:04:52;98671.06;;;-6.33;74.44
44027;BME280;29696;55.698;37.460;2022-11-18T05:07:18;98668.28;;;-6.27;74.61
44027;BME280;29696;55.698;37.460;2022-11-18T05:09:44;98675.84;;;-6.22;74.36
44027;BME280;29696;55.698;37.460;2022-11-18T05:12:12;98671.53;;;-6.22;73.89
44027;BME280;29696;55.698;37.460;2022-11-18T05:14:57;98667.25;;;-6.23;73.82
44027;BME280;29696;55.698;37.460;2022-11-18T05:17:24;98685.44;;;-6.27;73.88
44027;BME280;29696;55.698;37.460;2022-11-18T05:19:50;98671.78;;;-6.29;74.00
44027;BME280;29696;55.698;37.460;2022-11-18T05:22:16;98673.50;;;-6.30;73.81
44027;BME280;29696;55.698;37.460;2022-11-18T05:24:43;98677.94;;;-6.33;73.88
44027;BME280;29696;55.698;37.460;2022-11-18T05:27:10;98681.25;;;-6.31;73.98
44027;BME280;29696;55.698;37.460;2022-11-18T05:29:36;98682.13;;;-6.31;73.90
44027;BME280;29696;55.698;37.460;2022-11-18T05:32:03;98677.03;;;-6.32;73.97
44027;BME280;29696;55.698;37.460;2022-11-18T05:34:29;98685.56;;;-6.32;74.09
44027;BME280;29696;55.698;37.460;2022-11-18T05:36:56;98676.72;;;-6.23;74.51
44027;BME280;29696;55.698;37.460;2022-11-18T05:39:22;98678.41;;;-6.22;74.34
44027;BME280;29696;55.698;37.460;2022-11-18T05:41:48;98680.06;;;-6.21;74.17
44027;BME280;29696;55.698;37.460;2022-11-18T05:44:33;98676.47;;;-6.15;74.01
44027;BME280;29696;55.698;37.460;2022-11-18T05:46:59;98682.38;;;-6.13;73.87
44027;BME280;29696;55.698;37.460;2022-11-18T05:49:25;98678.09;;;-6.13;73.68
44027;BME280;29696;55.698;37.460;2022-11-18T05:51:52;98687.47;;;-6.12;73.55
44027;BME280;29696;55.698;37.460;2022-11-18T05:54:18;98679.78;;;-6.13;73.50
44027;BME280;29696;55.698;37.460;2022-11-18T05:56:46;98685.13;;;-6.18;73.78
44027;BME280;29696;55.698;37.460;2022-11-18T05:59:12;98690.97;;;-6.14;73.60
44027;BME280;29696;55.698;37.460;2022-11-18T06:02:00;98684.69;;;-6.06;73.68
44027;BME280;29696;55.698;37.460;2022-11-18T06:04:36;98696.72;;;-6.06;73.51
44027;BME280;29696;55.698;37.460;2022-11-18T06:07:31;98700.72;;;-5.99;73.64
44027;BME280;29696;55.698;37.460;2022-11-18T06:10:01;98694.91;;;-6.04;73.36
44027;BME280;29696;55.698;37.460;2022-11-18T06:12:34;98683.84;;;-6.06;73.08
44027;BME280;29696;55.698;37.460;2022-11-18T06:15:05;98685.41;;;-6.02;73.29
44027;BME280;29696;55.698;37.460;2022-11-18T06:17:47;98673.88;;;-5.92;73.47
44027;BME280;29696;55.698;37.460;2022-11-18T06:20:17;98676.81;;;-6.01;72.93
44027;BME280;29696;55.698;37.460;2022-11-18T06:22:44;98677.53;;;-5.98;73.09
44027;BME280;29696;55.698;37.460;2022-11-18T06:25:11;98680.88;;;-5.95;73.29
44027;BME280;29696;55.698;37.460;2022-11-18T06:27:37;98682.25;;;-5.87;73.46
44027;BME280;29696;55.698;37.460;2022-11-18T06:30:04;98684.78;;;-5.85;73.06
44027;BME280;29696;55.698;37.460;2022-11-18T06:32:31;98677.78;;;-5.82;73.30
44027;BME280;29696;55.698;37.460;2022-11-18T06:34:57;98675.19;;;-5.80;72.99
44027;BME280;29696;55.698;37.460;2022-11-18T06:37:23;98700.16;;;-5.84;72.59
44027;BME280;29696;55.698;37.460;2022-11-18T06:39:49;98696.13;;;-5.91;72.54
44027;BME280;29696;55.698;37.460;2022-11-18T06:42:16;98683.41;;;-5.94;72.53
44027;BME280;29696;55.698;37.460;2022-11-18T06:45:02;98682.34;;;-5.90;73.20
44027;BME280;29696;55.698;37.460;2022-11-18T06:47:29;98678.69;;;-5.83;73.55
44027;BME280;29696;55.698;37.460;2022-11-18T06:49:56;98674.38;;;-5.82;73.38
44027;BME280;29696;55.698;37.460;2022-11-18T06:52:22;98681.88;;;-5.76;73.59
44027;BME280;29696;55.698;37.460;2022-11-18T06:54:49;98681.88;;;-5.76;72.88
44027;BME280;29696;55.698;37.460;2022-11-18T06:57:15;98688.66;;;-5.74;72.76
44027;BME280;29696;55.698;37.460;2022-11-18T06:59:41;98681.81;;;-5.75;73.28
44027;BME280;29696;55.698;37.460;2022-11-18T07:02:07;98685.28;;;-5.76;72.75
44027;BME280;29696;55.698;37.460;2022-11-18T07:04:34;98672.59;;;-5.80;72.51
44027;BME280;29696;55.698;37.460;2022-11-18T07:07:07;98692.16;;;-5.76;72.30
44027;BME280;29696;55.698;37.460;2022-11-18T07:09:34;98684.44;;;-5.76;72.36
44027;BME280;29696;55.698;37.460;2022-11-18T07:12:00;98680.31;;;-5.80;72.54
44027;BME280;29696;55.698;37.460;2022-11-18T07:14:27;98674.09;;;-5.75;72.63
44027;BME280;29696;55.698;37.460;2022-11-18T07:16:53;98668.78;;;-5.70;73.24
44027;BME280;29696;55.698;37.460;2022-11-18T07:19:20;98681.38;;;-5.62;73.56
44027;BME280;29696;55.698;37.460;2022-11-18T07:21:46;98682.13;;;-5.60;73.03
44027;BME280;29696;55.698;37.460;2022-11-18T07:24:14;98677.06;;;-5.62;72.69
44027;BME280;29696;55.698;37.460;2022-11-18T07:26:41;98681.19;;;-5.58;72.64
44027;BME280;29696;55.698;37.460;2022-11-18T07:29:08;98686.19;;;-5.53;72.29
44027;BME280;29696;55.698;37.460;2022-11-18T07:31:35;98690.34;;;-5.51;72.45
44027;BME280;29696;55.698;37.460;2022-11-18T07:34:06;98683.31;;;-5.45;72.07
44027;BME280;29696;55.698;37.460;2022-11-18T07:36:33;98691.25;;;-5.52;71.51
44027;BME280;29696;55.698;37.460;2022-11-18T07:39:00;98682.47;;;-5.46;71.22
44027;BME280;29696;55.698;37.460;2022-11-18T07:41:28;98690.88;;;-5.41;71.55
44027;BME280;29696;55.698;37.460;2022-11-18T07:43:56;98686.22;;;-5.31;71.84
44027;BME280;29696;55.698;37.460;2022-11-18T07:46:31;98688.66;;;-5.28;71.77
44027;BME280;29696;55.698;37.460;2022-11-18T07:48:59;98705.66;;;-5.24;71.73
44027;BME280;29696;55.698;37.460;2022-11-18T07:51:28;98690.28;;;-5.25;71.63
44027;BME280;29696;55.698;37.460;2022-11-18T07:53:55;98692.91;;;-5.27;71.62
44027;BME280;29696;55.698;37.460;2022-11-18T07:56:22;98687.75;;;-5.27;71.91
44027;BME280;29696;55.698;37.460;2022-11-18T07:58:52;98692.50;;;-5.16;72.44
44027;BME280;29696;55.698;37.460;2022-11-18T08:01:22;98702.69;;;-5.13;72.00
44027;BME280;29696;55.698;37.460;2022-11-18T08:03:49;98707.00;;;-5.14;71.64
44027;BME280;29696;55.698;37.460;2022-11-18T08:06:17;98700.81;;;-5.10;72.11
44027;BME280;29696;55.698;37.460;2022-11-18T08:08:44;98699.41;;;-5.17;71.34
44027;BME280;29696;55.698;37.460;2022-11-18T08:11:13;98696.03;;;-5.19;71.09
44027;BME280;29696;55.698;37.460;2022-11-18T08:13:40;98699.56;;;-5.21;71.16
44027;BME280;29696;55.698;37.460;2022-11-18T08:16:18;98691.72;;;-5.18;71.85
44027;BME280;29696;55.698;37.460;2022-11-18T08:18:45;98718.66;;;-5.27;71.60
44027;BME280;29696;55.698;37.460;2022-11-18T08:21:12;98700.34;;;-5.19;71.66
44027;BME280;29696;55.698;37.460;2022-11-18T08:23:39;98699.28;;;-5.14;71.92
44027;BME280;29696;55.698;37.460;2022-11-18T08:26:11;98701.91;;;-5.15;71.30
44027;BME280;29696;55.698;37.460;2022-11-18T08:28:42;98701.78;;;-5.12;71.30
44027;BME280;29696;55.698;37.460;2022-11-18T08:34:06;98710.22;;;-5.09;71.11
44027;BME280;29696;55.698;37.460;2022-11-18T08:36:35;98705.19;;;-5.12;70.88
44027;BME280;29696;55.698;37.460;2022-11-18T08:39:05;98712.81;;;-5.09;71.11
44027;BME280;29696;55.698;37.460;2022-11-18T08:41:34;98711.25;;;-5.13;70.75
44027;BME280;29696;55.698;37.460;2022-11-18T08:44:01;98702.84;;;-5.18;70.92
44027;BME280;29696;55.698;37.460;2022-11-18T08:46:28;98694.28;;;-5.18;71.41
44027;BME280;29696;55.698;37.460;2022-11-18T08:48:55;98705.97;;;-5.10;71.48
44027;BME280;29696;55.698;37.460;2022-11-18T08:51:22;98704.91;;;-5.04;71.37
44027;BME280;29696;55.698;37.460;2022-11-18T08:53:48;98701.63;;;-5.08;70.97
44027;BME280;29696;55.698;37.460;2022-11-18T08:56:18;98701.19;;;-4.97;71.53
44027;BME280;29696;55.698;37.460;2022-11-18T08:58:45;98708.50;;;-4.86;71.71
44027;BME280;29696;55.698;37.460;2022-11-18T09:01:11;98712.47;;;-4.77;71.15
44027;BME280;29696;55.698;37.460;2022-11-18T09:03:38;98715.63;;;-4.71;70.63
44027;BME280;29696;55.698;37.460;2022-11-18T09:06:18;98715.13;;;-4.59;70.74
44027;BME280;29696;55.698;37.460;2022-11-18T09:08:45;98722.16;;;-4.62;70.32
44027;BME280;29696;55.698;37.460;2022-11-18T09:11:18;98724.47;;;-4.56;70.35
44027;BME280;29696;55.698;37.460;2022-11-18T09:13:45;98726.28;;;-4.58;70.26
44027;BME280;29696;55.698;37.460;2022-11-18T09:16:11;98727.06;;;-4.56;69.80
44027;BME280;29696;55.698;37.460;2022-11-18T09:18:38;98727.84;;;-4.54;69.97
44027;BME280;29696;55.698;37.460;2022-11-18T09:21:06;98727.75;;;-4.52;69.75
44027;BME280;29696;55.698;37.460;2022-11-18T09:23:35;98725.38;;;-4.57;69.79
44027;BME280;29696;55.698;37.460;2022-11-18T09:26:04;98720.41;;;-4.62;69.96
44027;BME280;29696;55.698;37.460;2022-11-18T09:28:31;98726.47;;;-4.63;70.09
44027;BME280;29696;55.698;37.460;2022-11-18T09:31:03;98726.22;;;-4.56;70.52
44027;BME280;29696;55.698;37.460;2022-11-18T09:33:30;98723.66;;;-4.56;70.38
44027;BME280;29696;55.698;37.460;2022-11-18T09:35:57;98716.50;;;-4.50;70.17
44027;BME280;29696;55.698;37.460;2022-11-18T09:38:23;98715.53;;;-4.47;70.20
44027;BME280;29696;55.698;37.460;2022-11-18T09:47:45;98719.94;;;-4.29;70.31
44027;BME280;29696;55.698;37.460;2022-11-18T09:50:15;98725.34;;;-4.35;70.20
44027;BME280;29696;55.698;37.460;2022-11-18T09:53:08;98728.19;;;-4.21;70.63
44027;BME280;29696;55.698;37.460;2022-11-18T09:55:40;98726.88;;;-4.31;70.02
44027;BME280;29696;55.698;37.460;2022-11-18T09:58:14;98731.78;;;-4.25;70.02
44027;BME280;29696;55.698;37.460;2022-11-18T10:00:43;98729.41;;;-4.29;69.79
44027;BME280;29696;55.698;37.460;2022-11-18T10:03:15;98725.78;;;-4.25;69.81
44027;BME280;29696;55.698;37.460;2022-11-18T10:06:09;98724.66;;;-4.18;70.34
44027;BME280;29696;55.698;37.460;2022-11-18T10:08:48;98734.25;;;-4.22;70.17
44027;BME280;29696;55.698;37.460;2022-11-18T10:11:19;98736.84;;;-4.22;70.41
44027;BME280;29696;55.698;37.460;2022-11-18T10:20:52;98736.34;;;-4.09;69.69
44027;BME280;29696;55.698;37.460;2022-11-18T10:23:25;98742.00;;;-4.22;69.16
44027;BME280;29696;55.698;37.460;2022-11-18T10:25:53;98739.72;;;-4.29;69.54
44027;BME280;29696;55.698;37.460;2022-11-18T10:28:28;98734.00;;;-4.36;69.79
44027;BME280;29696;55.698;37.460;2022-11-18T10:31:05;98742.06;;;-4.23;70.06
44027;BME280;29696;55.698;37.460;2022-11-18T10:33:32;98742.59;;;-4.37;70.50
44027;BME280;29696;55.698;37.460;2022-11-18T10:39:30;98752.53;;;-4.28;70.44
44027;BME280;29696;55.698;37.460;2022-11-18T10:42:03;98757.06;;;-4.33;70.52
44027;BME280;29696;55.698;37.460;2022-11-18T10:44:40;98758.56;;;-4.27;70.53
44027;BME280;29696;55.698;37.460;2022-11-18T10:50:36;98761.19;;;-4.29;70.45
44027;BME280;29696;55.698;37.460;2022-11-18T10:53:05;98761.28;;;-4.30;70.67
44027;BME280;29696;55.698;37.460;2022-11-18T10:55:32;98757.72;;;-4.28;70.41
44027;BME280;29696;55.698;37.460;2022-11-18T10:58:09;98761.97;;;-4.27;70.12
44027;BME280;29696;55.698;37.460;2022-11-18T11:01:05;98771.63;;;-4.32;70.09
44027;BME280;29696;55.698;37.460;2022-11-18T11:03:35;98769.69;;;-4.47;70.06
44027;BME280;29696;55.698;37.460;2022-11-18T11:06:34;98768.03;;;-4.48;70.42
44027;BME280;29696;55.698;37.460;2022-11-18T11:09:24;98773.34;;;-4.53;71.08
44027;BME280;29696;55.698;37.460;2022-11-18T11:12:17;98765.31;;;-4.45;71.42
44027;BME280;29696;55.698;37.460;2022-11-18T11:14:54;98761.69;;;-4.41;71.63
44027;BME280;29696;55.698;37.460;2022-11-18T11:17:47;98776.34;;;-4.42;70.95
44027;BME280;29696;55.698;37.460;2022-11-18T11:20:36;98779.34;;;-4.52;70.85
44027;BME280;29696;55.698;37.460;2022-11-18T11:23:08;98777.53;;;-4.50;71.03
44027;BME280;29696;55.698;37.460;2022-11-18T11:25:54;98775.69;;;-4.47;71.65
44027;BME280;29696;55.698;37.460;2022-11-18T11:29:03;98785.09;;;-4.46;71.74
44027;BME280;29696;55.698;37.460;2022-11-18T11:34:56;98799.00;;;-4.50;71.94
44027;BME280;29696;55.698;37.460;2022-11-18T11:41:05;98800.31;;;-4.62;71.53
44027;BME280;29696;55.698;37.460;2022-11-18T11:50:54;98806.31;;;-4.83;72.74
44027;BME280;29696;55.698;37.460;2022-11-18T11:53:40;98793.69;;;-4.91;72.88
44027;BME280;29696;55.698;37.460;2022-11-18T11:56:37;98807.22;;;-4.84;73.08
44027;BME280;29696;55.698;37.460;2022-11-18T12:05:31;98819.63;;;-4.72;72.81
44027;BME280;29696;55.698;37.460;2022-11-18T12:08:21;98817.06;;;-4.72;72.47
44027;BME280;29696;55.698;37.460;2022-11-18T12:11:02;98812.13;;;-4.78;72.43
44027;BME280;29696;55.698;37.460;2022-11-18T12:14:05;98820.59;;;-4.74;72.82
44027;BME280;29696;55.698;37.460;2022-11-18T12:19:27;98812.88;;;-4.98;72.62
44027;BME280;29696;55.698;37.460;2022-11-18T12:21:57;98833.97;;;-4.88;72.89
44027;BME280;29696;55.698;37.460;2022-11-18T12:25:00;98840.94;;;-4.90;73.35
44027;BME280;29696;55.698;37.460;2022-11-18T12:30:29;98837.03;;;-5.00;72.57
44027;BME280;29696;55.698;37.460;2022-11-18T12:32:55;98844.75;;;-5.00;72.87
44027;BME280;29696;55.698;37.460;2022-11-18T12:35:45;98844.53;;;-4.94;73.19
44027;BME280;29696;55.698;37.460;2022-11-18T12:38:33;98843.66;;;-4.93;73.13
44027;BME280;29696;55.698;37.460;2022-11-18T12:41:00;98840.66;;;-5.06;73.01
44027;BME280;29696;55.698;37.460;2022-11-18T12:44:08;98851.38;;;-4.93;73.39
44027;BME280;29696;55.698;37.460;2022-11-18T12:46:59;98851.31;;;-4.92;73.55
44027;BME280;29696;55.698;37.460;2022-11-18T12:52:53;98858.25;;;-4.94;74.26
44027;BME280;29696;55.698;37.460;2022-11-18T12:55:24;98855.66;;;-4.94;74.16
44027;BME280;29696;55.698;37.460;2022-11-18T12:57:51;98866.94;;;-4.96;74.23
44027;BME280;29696;55.698;37.460;2022-11-18T13:00:43;98869.13;;;-4.86;74.85
44027;BME280;29696;55.698;37.460;2022-11-18T13:03:23;98878.03;;;-4.94;74.62
44027;BME280;29696;55.698;37.460;2022-11-18T13:05:58;98874.97;;;-5.06;73.92
44027;BME280;29696;55.698;37.460;2022-11-18T13:08:27;98870.16;;;-5.15;74.12
44027;BME280;29696;55.698;37.460;2022-11-18T13:11:04;98875.31;;;-5.15;74.42
44027;BME280;29696;55.698;37.460;2022-11-18T13:13:51;98877.13;;;-5.17;74.75
44027;BME280;29696;55.698;37.460;2022-11-18T13:16:38;98876.41;;;-5.20;74.78
44027;BME280;29696;55.698;37.460;2022-11-18T13:19:24;98880.53;;;-5.16;74.81
44027;BME280;29696;55.698;37.460;2022-11-18T13:21:54;98889.16;;;-5.17;75.03
44027;BME280;29696;55.698;37.460;2022-11-18T13:24:48;98900.31;;;-5.17;75.12
44027;BME280;29696;55.698;37.460;2022-11-18T13:27:44;98899.25;;;-5.11;75.53
44027;BME280;29696;55.698;37.460;2022-11-18T13:30:13;98901.97;;;-5.16;75.20
44027;BME280;29696;55.698;37.460;2022-11-18T13:32:45;98901.06;;;-5.15;74.79
44027;BME280;29696;55.698;37.460;2022-11-18T13:35:18;98900.19;;;-5.14;74.80
44027;BME280;29696;55.698;37.460;2022-11-18T13:37:58;98907.81;;;-5.11;75.00
44027;BME280;29696;55.698;37.460;2022-11-18T13:40:27;98912.19;;;-5.13;75.18
44027;BME280;29696;55.698;37.460;2022-11-18T13:42:54;98912.13;;;-5.11;75.53
44027;BME280;29696;55.698;37.460;2022-11-18T13:45:27;98911.16;;;-5.09;75.55
44027;BME280;29696;55.698;37.460;2022-11-18T13:48:18;98915.25;;;-5.03;75.66
44027;BME280;29696;55.698;37.460;2022-11-18T13:50:50;98913.63;;;-5.06;75.40
44027;BME280;29696;55.698;37.460;2022-11-18T13:53:28;98904.22;;;-5.07;75.62
44027;BME280;29696;55.698;37.460;2022-11-18T13:56:15;98905.81;;;-5.02;75.89
44027;BME280;29696;55.698;37.460;2022-11-18T13:58:53;98900.59;;;-5.01;76.22
44027;BME280;29696;55.698;37.460;2022-11-18T14:01:23;98908.22;;;-4.98;76.50
44027;BME280;29696;55.698;37.460;2022-11-18T14:06:44;98910.09;;;-5.03;76.08
44027;BME280;29696;55.698;37.460;2022-11-18T14:09:54;98910.66;;;-4.93;76.57
44027;BME280;29696;55.698;37.460;2022-11-18T14:12:32;98910.78;;;-4.98;76.38
44027;BME280;29696;55.698;37.460;2022-11-18T14:15:21;98904.59;;;-4.92;76.18
44027;BME280;29696;55.698;37.460;2022-11-18T14:17:59;98905.97;;;-5.07;75.63
44027;BME280;29696;55.698;37.460;2022-11-18T14:20:28;98910.19;;;-5.05;75.90
44027;BME280;29696;55.698;37.460;2022-11-18T14:22:58;98909.44;;;-5.08;76.03
44027;BME280;29696;55.698;37.460;2022-11-18T14:25:32;98900.81;;;-5.07;76.12
44027;BME280;29696;55.698;37.460;2022-11-18T14:28:27;98918.59;;;-4.99;76.14
44027;BME280;29696;55.698;37.460;2022-11-18T14:30:58;98910.91;;;-5.01;75.98
44027;BME280;29696;55.698;37.460;2022-11-18T14:33:27;98911.84;;;-5.03;75.55